Time;durP1;ratioP1;P1;durP2;ratioP2;P2;SDS_P1;SDS_P2;PMS_P1;PMS_P2;Temp;Humidity;BMP_temperature;BMP_pressure;BME280_temperature;BME280_humidity;BME280_pressure;Samples;Min_cycle;Max_cycle;Signal;HPM_P1;HPM_P2
2023/12/01 00:00:19;;;;;;;60.05;54.15;;;7.00;99.90;;;;;;5011690;28;20046;-68
2023/12/01 00:02:45;;;;;;;79.10;61.83;;;7.00;99.90;;;;;;5012375;28;20684;-68
2023/12/01 00:05:11;;;;;;;129.45;66.13;;;7.00;99.90;;;;;;5012260;28;20041;-69
2023/12/01 00:07:37;;;;;;;110.77;73.30;;;7.00;99.90;;;;;;5011920;28;20046;-68
2023/12/01 00:10:04;;;;;;;119.60;81.15;;;7.20;99.90;;;;;;5011644;28;20048;-68
2023/12/01 00:12:31;;;;;;;94.25;63.20;;;7.30;99.90;;;;;;5027379;28;20041;-68
2023/12/01 00:14:57;;;;;;;125.65;62.95;;;7.40;99.90;;;;;;5012314;28;20474;-68
2023/12/01 00:17:23;;;;;;;76.57;60.03;;;7.40;99.90;;;;;;5012058;28;20041;-68
2023/12/01 00:19:49;;;;;;;113.15;56.67;;;7.50;99.90;;;;;;5012443;28;20041;-68
2023/12/01 00:22:15;;;;;;;92.47;54.78;;;7.50;99.90;;;;;;5012233;28;20040;-68
2023/12/01 00:24:41;;;;;;;97.38;62.60;;;7.40;99.90;;;;;;5011892;28;20030;-68
2023/12/01 00:27:07;;;;;;;74.47;59.38;;;7.40;99.90;;;;;;5011680;28;20398;-68
2023/12/01 00:29:33;;;;;;;100.22;67.53;;;7.30;99.90;;;;;;5012346;28;20097;-68
2023/12/01 00:31:59;;;;;;;101.97;64.35;;;7.20;99.90;;;;;;5010697;28;20049;-68
2023/12/01 00:34:25;;;;;;;113.87;70.83;;;7.10;99.90;;;;;;5012389;28;20029;-68
2023/12/01 00:36:53;;;;;;;220.35;86.60;;;7.10;99.90;;;;;;5011849;28;20026;-68
2023/12/01 00:39:19;;;;;;;126.35;74.47;;;7.20;99.90;;;;;;5026621;28;20034;-68
2023/12/01 00:41:45;;;;;;;149.98;68.40;;;7.30;99.90;;;;;;5011991;28;20057;-68
2023/12/01 00:44:11;;;;;;;277.52;89.88;;;7.20;99.90;;;;;;5011981;28;20030;-68
2023/12/01 00:46:37;;;;;;;128.10;75.25;;;7.30;99.90;;;;;;5011287;28;20525;-68
2023/12/01 00:49:03;;;;;;;86.38;66.55;;;7.20;99.90;;;;;;5012487;28;20021;-68
2023/12/01 00:51:29;;;;;;;108.15;72.68;;;7.20;99.90;;;;;;5011969;28;20045;-68
2023/12/01 00:53:56;;;;;;;103.32;81.35;;;7.20;99.90;;;;;;5015901;28;20041;-68
2023/12/01 00:56:22;;;;;;;94.18;70.15;;;7.10;99.90;;;;;;5015931;28;20034;-68
2023/12/01 00:58:48;;;;;;;112.32;67.13;;;7.10;99.90;;;;;;5016287;28;20022;-68
2023/12/01 01:01:14;;;;;;;92.15;59.65;;;7.10;99.90;;;;;;5015312;28;20042;-68
2023/12/01 01:03:41;;;;;;;102.95;66.43;;;7.10;99.90;;;;;;5015540;28;20046;-68
2023/12/01 01:06:07;;;;;;;78.72;60.20;;;7.00;99.90;;;;;;5015717;28;20033;-68
2023/12/01 01:08:33;;;;;;;75.20;62.63;;;7.00;99.90;;;;;;5015539;28;20053;-73
2023/12/01 01:10:59;;;;;;;83.07;62.43;;;7.00;99.90;;;;;;5015622;28;20046;-73
2023/12/01 01:13:26;;;;;;;102.75;64.95;;;7.00;99.90;;;;;;5016307;28;20040;-73
2023/12/01 01:15:52;;;;;;;66.00;51.10;;;7.00;99.90;;;;;;5029884;28;20049;-73
2023/12/01 01:18:20;;;;;;;57.50;51.83;;;6.90;99.90;;;;;;5015961;28;20054;-73
2023/12/01 01:20:47;;;;;;;57.85;51.90;;;6.90;99.90;;;;;;5015605;28;20042;-73
2023/12/01 01:23:13;;;;;;;74.25;58.67;;;6.80;99.90;;;;;;5015490;28;20375;-73
2023/12/01 01:25:39;;;;;;;41.10;37.00;;;6.80;99.90;;;;;;5030453;28;20029;-73
2023/12/01 01:28:05;;;;;;;60.10;53.58;;;6.90;99.90;;;;;;5015615;28;20510;-73
2023/12/01 01:30:31;;;;;;;51.25;45.35;;;6.80;99.90;;;;;;5014559;28;20057;-73
2023/12/01 01:32:57;;;;;;;52.92;44.85;;;6.80;99.90;;;;;;5016022;28;20415;-73
2023/12/01 01:35:23;;;;;;;55.40;49.23;;;6.80;99.90;;;;;;5014931;28;20498;-73
2023/12/01 01:37:50;;;;;;;59.55;53.53;;;6.70;99.90;;;;;;5014929;28;20042;-73
2023/12/01 01:40:16;;;;;;;114.20;102.88;;;6.80;99.90;;;;;;5015348;28;20410;-73
2023/12/01 01:42:42;;;;;;;66.60;60.17;;;6.80;99.90;;;;;;5015531;28;20041;-73
2023/12/01 01:45:08;;;;;;;56.33;50.28;;;6.90;99.90;;;;;;5015131;28;20056;-72
2023/12/01 01:47:34;;;;;;;64.75;58.17;;;6.90;99.90;;;;;;5015045;28;20049;-72
2023/12/01 01:50:04;;;;;;;57.40;50.37;;;6.80;99.90;;;;;;5015500;28;20033;-72
2023/12/01 01:52:30;;;;;;;84.33;77.17;;;6.80;99.90;;;;;;5029240;28;20052;-72
2023/12/01 01:54:56;;;;;;;67.15;60.90;;;6.80;99.90;;;;;;5015388;28;20049;-72
2023/12/01 01:57:22;;;;;;;77.47;70.60;;;6.80;99.90;;;;;;5014916;28;20136;-72
2023/12/01 01:59:48;;;;;;;78.40;70.75;;;6.90;99.90;;;;;;5030526;28;20038;-72
2023/12/01 02:02:14;;;;;;;47.05;41.75;;;6.90;99.90;;;;;;5014775;28;20033;-72
2023/12/01 02:04:41;;;;;;;48.97;40.28;;;6.90;99.90;;;;;;5013970;28;20034;-72
2023/12/01 02:07:08;;;;;;;73.35;66.32;;;6.80;99.90;;;;;;5013088;28;20042;-72
2023/12/01 02:09:34;;;;;;;70.13;63.43;;;6.80;99.90;;;;;;5014628;28;20050;-72
2023/12/01 02:12:00;;;;;;;58.08;52.10;;;6.80;99.90;;;;;;5014866;28;20050;-69
2023/12/01 02:14:27;;;;;;;60.53;54.22;;;6.70;99.90;;;;;;5014238;28;20510;-70
2023/12/01 02:16:53;;;;;;;59.13;48.57;;;6.70;99.90;;;;;;5013809;28;20042;-69
2023/12/01 02:19:19;;;;;;;50.63;40.95;;;6.70;99.90;;;;;;5014552;28;20080;-70
2023/12/01 02:21:46;;;;;;;61.17;47.33;;;6.70;99.90;;;;;;5013595;28;20057;-70
2023/12/01 02:24:12;;;;;;;66.25;50.60;;;6.80;99.90;;;;;;5014901;28;20046;-70
2023/12/01 02:26:38;;;;;;;56.75;44.03;;;6.80;99.90;;;;;;5029456;28;20052;-70
2023/12/01 02:29:07;;;;;;;54.80;48.30;;;6.70;99.90;;;;;;5014275;28;20049;-70
2023/12/01 02:31:33;;;;;;;57.30;49.97;;;6.70;99.90;;;;;;5013812;28;20418;-69
2023/12/01 02:33:59;;;;;;;60.03;45.28;;;6.70;99.90;;;;;;5014482;28;20029;-69
2023/12/01 02:36:25;;;;;;;79.03;71.50;;;6.80;99.90;;;;;;5013455;28;20026;-69
2023/12/01 02:38:51;;;;;;;81.50;73.30;;;6.80;99.90;;;;;;5013965;28;20036;-70
2023/12/01 02:41:17;;;;;;;61.08;50.70;;;6.80;99.90;;;;;;5013945;28;20034;-70
2023/12/01 02:43:44;;;;;;;92.47;83.53;;;6.90;99.90;;;;;;5014124;28;20038;-70
2023/12/01 02:46:14;;;;;;;50.38;43.70;;;6.90;99.90;;;;;;5013451;28;20056;-69
2023/12/01 02:48:40;;;;;;;49.08;43.70;;;6.90;99.90;;;;;;5012648;28;20058;-69
2023/12/01 02:51:07;;;;;;;35.63;30.65;;;6.80;99.90;;;;;;5013864;28;20033;-70
2023/12/01 02:53:34;;;;;;;41.05;36.72;;;6.70;99.90;;;;;;5014041;28;20383;-69
2023/12/01 02:56:00;;;;;;;45.47;35.28;;;6.60;99.90;;;;;;5013878;28;20061;-69
2023/12/01 02:58:26;;;;;;;50.27;45.23;;;6.50;99.90;;;;;;5014121;28;20041;-70
2023/12/01 03:00:53;;;;;;;45.08;39.63;;;6.60;99.90;;;;;;5013265;28;20042;-69
2023/12/01 03:03:20;;;;;;;37.07;31.50;;;6.60;99.90;;;;;;5013362;28;20038;-69
2023/12/01 03:05:46;;;;;;;37.63;31.77;;;6.50;99.90;;;;;;5012859;28;20030;-69
2023/12/01 03:08:12;;;;;;;35.67;31.80;;;6.50;99.90;;;;;;5029013;28;20402;-69
2023/12/01 03:10:38;;;;;;;38.90;34.87;;;6.50;99.90;;;;;;5013346;28;20034;-70
2023/12/01 03:13:04;;;;;;;34.40;30.67;;;6.40;99.90;;;;;;5013616;28;20033;-71
2023/12/01 03:15:30;;;;;;;27.57;24.50;;;6.40;99.90;;;;;;5012454;28;20051;-71
2023/12/01 03:17:56;;;;;;;35.43;30.83;;;6.40;99.90;;;;;;5012712;28;20415;-72
2023/12/01 03:20:22;;;;;;;31.88;27.77;;;6.30;99.90;;;;;;5013052;28;20573;-71
2023/12/01 03:22:51;;;;;;;30.63;26.53;;;6.30;99.90;;;;;;5013793;28;20056;-71
2023/12/01 03:25:17;;;;;;;39.00;30.50;;;6.30;99.90;;;;;;5013361;28;20379;-72
2023/12/01 03:27:45;;;;;;;52.07;38.83;;;6.30;99.90;;;;;;5013181;28;20038;-71
2023/12/01 03:30:15;;;;;;;52.93;38.77;;;6.30;99.90;;;;;;5012838;28;20033;-72
2023/12/01 03:32:45;;;;;;;40.72;31.52;;;6.40;99.90;;;;;;4993581;28;20027;-71
2023/12/01 03:35:12;;;;;;;56.97;49.07;;;6.30;99.90;;;;;;5009403;28;20490;-72
2023/12/01 03:37:39;;;;;;;52.93;40.57;;;6.40;99.90;;;;;;5013348;28;20042;-71
2023/12/01 03:40:15;;;;;;;50.03;40.60;;;6.40;99.90;;;;;;5013063;28;20041;-72
2023/12/01 03:42:47;;;;;;;57.37;49.00;;;6.40;99.90;;;;;;5013496;28;20030;-72
2023/12/01 03:45:14;;;;;;;60.70;54.17;;;6.40;99.90;;;;;;5012590;28;20034;-72
2023/12/01 03:47:41;;;;;;;34.05;26.80;;;6.30;99.90;;;;;;5012994;28;20049;-72
2023/12/01 03:50:11;;;;;;;38.13;27.87;;;6.40;99.90;;;;;;5012905;28;20037;-72
2023/12/01 03:52:41;;;;;;;37.80;28.65;;;6.30;99.90;;;;;;5008171;28;20075;-71
2023/12/01 03:55:09;;;;;;;35.92;30.65;;;6.30;99.90;;;;;;5007647;28;20026;-72
2023/12/01 03:57:35;;;;;;;27.10;24.20;;;6.30;99.90;;;;;;5012807;28;20029;-71
2023/12/01 04:00:04;;;;;;;41.60;33.30;;;6.30;99.90;;;;;;5013307;28;20383;-71
2023/12/01 04:02:30;;;;;;;41.53;37.10;;;6.30;99.90;;;;;;5045467;28;20056;-72
2023/12/01 04:04:56;;;;;;;41.43;37.17;;;6.30;99.90;;;;;;5032202;28;20049;-72
2023/12/01 04:07:22;;;;;;;44.47;33.57;;;6.30;99.90;;;;;;5032028;28;20033;-71
2023/12/01 04:09:48;;;;;;;41.90;36.60;;;6.40;99.90;;;;;;5032660;28;20048;-72
2023/12/01 04:12:15;;;;;;;24.57;22.07;;;6.40;99.90;;;;;;5032488;28;20033;-73
2023/12/01 04:14:41;;;;;;;42.43;33.07;;;6.30;99.90;;;;;;5032284;28;20397;-72
2023/12/01 04:17:10;;;;;;;35.07;30.70;;;6.30;99.90;;;;;;5014524;28;20049;-69
2023/12/01 04:19:37;;;;;;;38.43;31.70;;;6.40;99.90;;;;;;5012522;28;20061;-69
2023/12/01 04:22:04;;;;;;;51.53;45.63;;;6.40;99.90;;;;;;5012686;28;20494;-69
2023/12/01 04:24:34;;;;;;;59.90;53.93;;;6.50;99.90;;;;;;5027422;28;20041;-69
2023/12/01 04:27:04;;;;;;;48.63;39.88;;;6.60;99.90;;;;;;5011659;28;20045;-69
2023/12/01 04:29:30;;;;;;;43.60;34.47;;;6.50;99.90;;;;;;5027885;28;20410;-69
2023/12/01 04:32:00;;;;;;;50.67;43.13;;;6.50;99.90;;;;;;5011534;28;20053;-69
2023/12/01 04:34:26;;;;;;;43.60;38.57;;;6.50;99.90;;;;;;5012021;28;20061;-69
2023/12/01 04:36:53;;;;;;;51.40;46.27;;;6.50;99.90;;;;;;5011772;28;20053;-69
2023/12/01 04:39:20;;;;;;;49.07;43.27;;;6.50;99.90;;;;;;5012565;28;20038;-70
2023/12/01 04:41:50;;;;;;;43.60;34.55;;;6.50;99.90;;;;;;5012693;28;20052;-70
2023/12/01 04:44:16;;;;;;;40.47;35.83;;;6.60;99.90;;;;;;5011203;28;20034;-69
2023/12/01 04:46:42;;;;;;;50.27;45.20;;;6.60;99.90;;;;;;5009434;28;20392;-70
2023/12/01 04:49:08;;;;;;;61.57;55.70;;;6.60;99.90;;;;;;5011770;28;20049;-69
2023/12/01 04:51:36;;;;;;;55.37;49.77;;;6.70;99.90;;;;;;5011844;28;20049;-69
2023/12/01 04:54:05;;;;;;;44.90;38.10;;;6.70;99.90;;;;;;5012160;28;20041;-69
2023/12/01 04:56:31;;;;;;;51.53;46.00;;;6.80;99.90;;;;;;5011785;28;20436;-69
2023/12/01 04:58:57;;;;;;;41.03;34.83;;;6.80;99.90;;;;;;5011987;28;20041;-69
2023/12/01 05:01:24;;;;;;;49.83;44.67;;;6.80;99.90;;;;;;5011110;28;20041;-69
2023/12/01 05:03:50;;;;;;;41.77;35.77;;;6.70;99.90;;;;;;5011060;28;20033;-69
2023/12/01 05:06:16;;;;;;;49.03;44.43;;;6.70;99.90;;;;;;5011553;28;20382;-70
2023/12/01 05:08:42;;;;;;;47.65;43.08;;;6.60;99.90;;;;;;5011753;28;20376;-69
2023/12/01 05:11:08;;;;;;;55.20;50.17;;;6.50;99.90;;;;;;5011751;28;20046;-69
2023/12/01 05:13:34;;;;;;;50.30;45.87;;;6.50;99.90;;;;;;5011864;28;20045;-69
2023/12/01 05:16:00;;;;;;;61.40;55.85;;;6.50;99.90;;;;;;5011185;28;20076;-69
2023/12/01 05:18:26;;;;;;;24.73;22.73;;;6.40;99.90;;;;;;5012251;28;20048;-71
2023/12/01 05:20:53;;;;;;;47.93;43.77;;;6.40;99.90;;;;;;5011453;28;20403;-71
2023/12/01 05:23:19;;;;;;;47.17;43.17;;;6.40;99.90;;;;;;5012363;28;20042;-72
2023/12/01 05:25:46;;;;;;;51.43;47.00;;;6.40;99.90;;;;;;5011742;28;20046;-71
2023/12/01 05:28:12;;;;;;;46.90;42.70;;;6.40;99.90;;;;;;5011775;28;20045;-72
2023/12/01 05:30:40;;;;;;;59.53;54.63;;;6.40;99.90;;;;;;5011143;28;20041;-72
2023/12/01 05:33:09;;;;;;;56.10;51.40;;;6.50;99.90;;;;;;5011730;28;20045;-72
2023/12/01 05:35:39;;;;;;;39.07;36.23;;;6.50;99.90;;;;;;5011585;28;20041;-72
2023/12/01 05:38:05;;;;;;;41.77;38.23;;;6.40;99.90;;;;;;5012031;28;20505;-71
2023/12/01 05:40:35;;;;;;;49.83;45.43;;;6.30;99.90;;;;;;5014547;28;20482;-72
2023/12/01 05:43:02;;;;;;;42.75;39.17;;;6.40;99.90;;;;;;5015128;28;20502;-72
2023/12/01 05:45:29;;;;;;;47.87;44.10;;;6.40;99.90;;;;;;5014418;28;20057;-72
2023/12/01 05:47:56;;;;;;;47.83;43.43;;;6.30;99.90;;;;;;5014656;28;20046;-72
2023/12/01 05:50:26;;;;;;;139.27;59.03;;;6.30;99.90;;;;;;5013690;28;20461;-72
2023/12/01 05:52:54;;;;;;;39.70;36.28;;;6.40;99.90;;;;;;5017850;28;20026;-71
2023/12/01 05:55:22;;;;;;;42.03;38.40;;;6.40;99.90;;;;;;5011044;28;20026;-72
2023/12/01 05:57:55;;;;;;;46.70;43.10;;;6.30;99.90;;;;;;5019534;28;20405;-71
2023/12/01 06:00:22;;;;;;;44.77;40.87;;;6.30;99.90;;;;;;5018005;28;20030;-72
2023/12/01 06:02:50;;;;;;;46.70;42.90;;;6.30;99.90;;;;;;5014332;28;20425;-71
2023/12/01 06:05:17;;;;;;;42.87;39.70;;;6.30;99.90;;;;;;5016904;28;20510;-72
2023/12/01 06:07:49;;;;;;;39.27;36.03;;;6.30;99.90;;;;;;5012505;28;20037;-71
2023/12/01 06:10:16;;;;;;;47.73;43.87;;;6.30;99.90;;;;;;5014334;28;20052;-71
2023/12/01 06:12:42;;;;;;;53.47;49.43;;;6.30;99.90;;;;;;5015293;28;20037;-72
2023/12/01 06:15:10;;;;;;;45.27;41.57;;;6.30;99.90;;;;;;5015198;28;20033;-71
2023/12/01 06:17:37;;;;;;;49.17;45.27;;;6.30;99.90;;;;;;5032904;28;20041;-72
2023/12/01 06:20:04;;;;;;;45.30;41.80;;;6.30;99.90;;;;;;5034300;28;20075;-71
2023/12/01 06:22:30;;;;;;;45.57;41.63;;;6.30;99.90;;;;;;5035661;28;20438;-69
2023/12/01 06:24:56;;;;;;;41.13;37.77;;;6.30;99.90;;;;;;5039397;28;20025;-70
2023/12/01 06:27:22;;;;;;;46.23;42.33;;;6.30;99.90;;;;;;5032154;28;20486;-70
2023/12/01 06:29:51;;;;;;;49.50;45.33;;;6.30;99.90;;;;;;5034023;28;20057;-70
2023/12/01 06:32:17;;;;;;;49.90;45.50;;;6.30;99.90;;;;;;5036718;28;20037;-70
2023/12/01 06:34:43;;;;;;;43.87;40.17;;;6.40;99.90;;;;;;5032426;28;20049;-70
2023/12/01 06:37:09;;;;;;;48.43;44.43;;;6.40;99.90;;;;;;5033574;28;20044;-70
2023/12/01 06:39:35;;;;;;;54.50;50.27;;;6.30;99.90;;;;;;5033589;28;20045;-70
2023/12/01 06:42:01;;;;;;;46.83;42.73;;;6.30;99.90;;;;;;5031742;28;20394;-70
2023/12/01 06:44:27;;;;;;;57.17;44.90;;;6.30;99.90;;;;;;5035182;28;20033;-70
2023/12/01 06:46:53;;;;;;;54.67;50.03;;;6.30;99.90;;;;;;5031622;28;20610;-70
2023/12/01 06:49:19;;;;;;;51.83;47.07;;;6.30;99.90;;;;;;5034801;28;20045;-70
2023/12/01 06:51:45;;;;;;;54.33;49.83;;;6.20;99.90;;;;;;5035530;28;20029;-70
2023/12/01 06:54:11;;;;;;;57.00;51.70;;;6.20;99.90;;;;;;5032822;28;20074;-70
2023/12/01 06:56:37;;;;;;;46.33;42.10;;;6.10;99.90;;;;;;5033654;28;20386;-70
2023/12/01 06:59:06;;;;;;;56.17;50.93;;;6.20;99.90;;;;;;5032457;28;20037;-70
2023/12/01 07:01:35;;;;;;;37.47;33.77;;;6.10;99.90;;;;;;5033236;28;20036;-70
2023/12/01 07:04:07;;;;;;;49.00;42.90;;;6.10;99.90;;;;;;5034074;28;20498;-70
2023/12/01 07:06:35;;;;;;;44.90;40.60;;;6.10;99.90;;;;;;5032723;28;20390;-70
2023/12/01 07:09:01;;;;;;;42.60;38.70;;;6.00;99.90;;;;;;5034872;28;20049;-70
2023/12/01 07:11:27;;;;;;;41.50;36.27;;;6.00;99.90;;;;;;5032418;28;20041;-70
2023/12/01 07:13:54;;;;;;;45.57;41.57;;;6.00;99.90;;;;;;5032314;28;20052;-70
2023/12/01 07:16:20;;;;;;;44.17;40.20;;;5.90;99.90;;;;;;5037860;28;20045;-70
2023/12/01 07:18:46;;;;;;;41.83;37.50;;;5.90;99.90;;;;;;5031310;28;20041;-70
2023/12/01 07:21:13;;;;;;;45.00;40.73;;;5.90;99.90;;;;;;5032605;28;20375;-70
2023/12/01 07:23:41;;;;;;;42.33;38.53;;;5.90;99.90;;;;;;5033156;28;20210;-70
2023/12/01 07:26:07;;;;;;;42.17;38.47;;;6.00;99.90;;;;;;5032252;28;20061;-70
2023/12/01 07:28:33;;;;;;;54.63;50.13;;;5.90;99.90;;;;;;5032972;28;20053;-70
2023/12/01 07:31:00;;;;;;;39.90;36.20;;;5.90;99.90;;;;;;5032281;28;20059;-70
2023/12/01 07:33:26;;;;;;;41.17;37.10;;;5.90;99.90;;;;;;5030760;28;20072;-70
2023/12/01 07:35:52;;;;;;;63.47;58.17;;;6.00;99.90;;;;;;5033159;28;20033;-72
2023/12/01 07:38:20;;;;;;;47.90;43.40;;;6.00;99.90;;;;;;5046679;28;20040;-70
2023/12/01 07:40:46;;;;;;;52.13;47.63;;;6.00;99.90;;;;;;5034593;28;20057;-69
2023/12/01 07:43:12;;;;;;;52.17;47.80;;;6.00;99.90;;;;;;5019265;28;20041;-70
2023/12/01 07:45:38;;;;;;;38.37;35.03;;;6.00;99.90;;;;;;5012352;28;20041;-70
2023/12/01 07:48:05;;;;;;;52.97;48.80;;;6.10;99.90;;;;;;5013230;28;20037;-70
2023/12/01 07:50:31;;;;;;;47.27;43.27;;;6.00;99.90;;;;;;5013156;28;20030;-70
2023/12/01 07:52:57;;;;;;;53.63;49.50;;;6.00;99.90;;;;;;5020882;28;20097;-70
2023/12/01 07:55:24;;;;;;;30.77;28.03;;;6.00;99.90;;;;;;5030444;28;20045;-70
2023/12/01 07:57:51;;;;;;;53.13;48.77;;;6.10;99.90;;;;;;5032641;28;20509;-70
2023/12/01 08:00:17;;;;;;;44.90;40.83;;;6.10;99.90;;;;;;5017033;28;20025;-69
2023/12/01 08:02:44;;;;;;;37.93;34.13;;;6.00;99.90;;;;;;5037795;28;20463;-70
2023/12/01 08:05:13;;;;;;;42.07;38.27;;;6.00;99.90;;;;;;5047558;28;20032;-71
2023/12/01 08:07:43;;;;;;;29.23;26.70;;;6.00;99.90;;;;;;5032315;28;20029;-70
2023/12/01 08:10:14;;;;;;;47.97;44.10;;;6.00;99.90;;;;;;5030917;28;20053;-70
2023/12/01 08:12:42;;;;;;;41.38;37.63;;;5.90;99.90;;;;;;5032485;28;20025;-70
2023/12/01 08:15:09;;;;;;;36.43;33.20;;;6.00;99.90;;;;;;5046993;28;20034;-69
2023/12/01 08:17:35;;;;;;;41.47;37.57;;;6.00;99.90;;;;;;5030722;28;20049;-70
2023/12/01 08:20:01;;;;;;;36.57;33.23;;;6.00;99.90;;;;;;5032432;28;20502;-70
2023/12/01 08:22:29;;;;;;;40.90;37.20;;;6.10;99.90;;;;;;5031683;28;20079;-70
2023/12/01 08:24:55;;;;;;;44.03;40.10;;;6.00;99.90;;;;;;5031220;28;20450;-70
2023/12/01 08:27:21;;;;;;;44.20;40.00;;;6.00;99.90;;;;;;5031974;28;20033;-70
2023/12/01 08:29:47;;;;;;;42.83;38.93;;;6.00;99.90;;;;;;5031489;28;20045;-70
2023/12/01 08:32:13;;;;;;;40.00;35.53;;;6.10;99.90;;;;;;5031402;28;20048;-69
2023/12/01 08:34:39;;;;;;;46.23;42.13;;;6.10;99.90;;;;;;5023323;28;20040;-70
2023/12/01 08:37:05;;;;;;;58.17;53.57;;;6.10;99.90;;;;;;5031631;28;20085;-70
2023/12/01 08:39:31;;;;;;;49.07;44.50;;;6.10;99.90;;;;;;5032060;28;20030;-69
2023/12/01 08:41:57;;;;;;;46.30;42.10;;;6.10;99.90;;;;;;5031382;28;20482;-70
2023/12/01 08:44:24;;;;;;;50.93;46.23;;;6.10;99.90;;;;;;5030362;28;20030;-70
2023/12/01 08:46:50;;;;;;;54.23;49.37;;;6.20;99.90;;;;;;5029044;28;20029;-69
2023/12/01 08:49:16;;;;;;;59.53;54.73;;;6.20;99.90;;;;;;5031869;28;20053;-70
2023/12/01 08:51:42;;;;;;;44.40;39.93;;;6.10;99.90;;;;;;5030379;28;20037;-70
2023/12/01 08:54:08;;;;;;;60.67;55.70;;;6.20;99.90;;;;;;5030181;28;20042;-70
2023/12/01 08:56:34;;;;;;;88.70;39.87;;;6.20;99.90;;;;;;5030534;28;20026;-70
2023/12/01 08:59:00;;;;;;;47.37;42.67;;;6.20;99.90;;;;;;5029117;28;20037;-70
2023/12/01 09:01:26;;;;;;;38.57;35.37;;;6.20;99.90;;;;;;5016875;28;20049;-70
2023/12/01 09:03:53;;;;;;;41.10;37.07;;;6.20;99.90;;;;;;5026911;28;20030;-70
2023/12/01 09:06:19;;;;;;;52.00;47.17;;;6.10;99.90;;;;;;5011116;28;20033;-70
2023/12/01 09:08:45;;;;;;;34.33;31.33;;;6.10;99.90;;;;;;5026598;28;20041;-70
2023/12/01 09:11:11;;;;;;;45.17;41.17;;;6.10;99.90;;;;;;5010672;28;20033;-70
2023/12/01 09:13:37;;;;;;;41.90;38.13;;;6.10;99.90;;;;;;5013526;28;20030;-70
2023/12/01 09:16:04;;;;;;;48.67;44.37;;;6.10;99.90;;;;;;5012219;28;20045;-72
2023/12/01 09:18:30;;;;;;;44.77;40.17;;;6.40;99.90;;;;;;5030314;28;20042;-70
2023/12/01 09:20:56;;;;;;;85.53;73.87;;;6.40;99.90;;;;;;5014126;28;20034;-70
2023/12/01 09:23:22;;;;;;;66.70;61.43;;;6.30;99.90;;;;;;5010786;28;20030;-71
2023/12/01 09:25:48;;;;;;;47.67;43.07;;;6.20;99.90;;;;;;5014767;28;20034;-70
2023/12/01 09:28:14;;;;;;;44.43;39.90;;;6.20;99.90;;;;;;5015034;28;20398;-70
2023/12/01 09:30:40;;;;;;;36.80;33.20;;;6.20;99.90;;;;;;5014227;28;20030;-70
2023/12/01 09:33:06;;;;;;;46.70;42.03;;;6.10;99.90;;;;;;5014377;28;20052;-70
2023/12/01 09:35:32;;;;;;;48.83;43.60;;;6.10;99.90;;;;;;5014511;28;20498;-70
2023/12/01 09:37:58;;;;;;;39.30;35.97;;;6.10;99.90;;;;;;5014582;28;20037;-70
2023/12/01 09:40:24;;;;;;;35.30;32.03;;;6.10;99.90;;;;;;5014370;28;20025;-70
2023/12/01 09:42:51;;;;;;;54.40;49.00;;;6.00;99.90;;;;;;5013806;28;20022;-70
2023/12/01 09:45:22;;;;;;;47.93;43.43;;;6.00;99.90;;;;;;5013879;28;20395;-70
2023/12/01 09:47:58;;;;;;;45.10;38.17;;;6.10;99.90;;;;;;5007199;28;20466;-70
2023/12/01 09:50:24;;;;;;;48.93;43.97;;;6.10;99.90;;;;;;5014180;28;20475;-71
2023/12/01 09:52:53;;;;;;;34.53;31.37;;;6.10;99.90;;;;;;5014991;28;20034;-69
2023/12/01 09:55:20;;;;;;;49.13;45.07;;;6.10;99.90;;;;;;5015069;28;20034;-71
2023/12/01 09:57:46;;;;;;;34.00;30.73;;;6.20;99.90;;;;;;5011398;28;20031;-70
2023/12/01 10:00:12;;;;;;;47.70;43.77;;;6.20;99.90;;;;;;4998686;28;20399;-70
2023/12/01 10:02:39;;;;;;;32.63;29.30;;;6.20;99.90;;;;;;5034505;28;20034;-70
2023/12/01 10:05:06;;;;;;;39.85;36.30;;;6.10;99.90;;;;;;5033937;28;20026;-70
2023/12/01 10:07:33;;;;;;;49.60;45.28;;;6.20;99.90;;;;;;5034412;28;20025;-70
2023/12/01 10:09:59;;;;;;;44.80;40.75;;;6.30;99.90;;;;;;5034252;28;20041;-71
2023/12/01 10:12:25;;;;;;;51.23;46.90;;;6.30;99.90;;;;;;5034282;28;20029;-70
2023/12/01 10:14:51;;;;;;;54.75;50.10;;;6.30;99.90;;;;;;5034437;28;20386;-70
2023/12/01 10:17:17;;;;;;;39.07;35.43;;;6.30;99.90;;;;;;5033370;28;20034;-70
2023/12/01 10:19:47;;;;;;;46.67;42.58;;;6.30;99.90;;;;;;5032485;28;20054;-70
2023/12/01 10:22:15;;;;;;;25.60;23.08;;;6.30;99.90;;;;;;5034171;28;20037;-70
2023/12/01 10:25:05;;;;;;;34.50;31.23;;;6.30;99.90;;;;;;5033547;28;20038;-70
2023/12/01 10:27:31;;;;;;;40.60;37.03;;;6.30;99.90;;;;;;5033727;28;20469;-70
2023/12/01 10:30:11;;;;;;;48.13;43.72;;;6.30;99.90;;;;;;5034131;28;20038;-71
2023/12/01 10:32:37;;;;;;;34.53;30.97;;;6.30;99.90;;;;;;5031611;28;20040;-70
2023/12/01 10:35:05;;;;;;;25.50;21.42;;;6.20;99.90;;;;;;5049412;28;20056;-70
2023/12/01 10:37:31;;;;;;;51.43;47.07;;;6.20;99.90;;;;;;5032547;28;20474;-70
2023/12/01 10:39:57;;;;;;;35.63;31.97;;;6.10;99.90;;;;;;5049684;28;20036;-70
2023/12/01 10:42:24;;;;;;;49.25;45.25;;;6.20;99.90;;;;;;5049176;28;20029;-70
2023/12/01 10:44:50;;;;;;;30.83;27.83;;;6.20;99.90;;;;;;5049113;28;20036;-70
2023/12/01 10:47:16;;;;;;;37.90;34.47;;;6.30;99.90;;;;;;5048257;28;20042;-70
2023/12/01 10:49:44;;;;;;;51.33;47.30;;;6.30;99.90;;;;;;5016130;28;20406;-70
2023/12/01 10:52:12;;;;;;;47.47;42.92;;;6.20;99.90;;;;;;5046531;28;20021;-69
2023/12/01 10:54:42;;;;;;;44.50;40.73;;;6.30;99.90;;;;;;5024662;28;20033;-72
2023/12/01 10:57:33;;;;;;;66.80;62.00;;;6.30;99.90;;;;;;5031854;28;20033;-71
2023/12/01 11:00:00;;;;;;;44.90;41.00;;;6.40;99.90;;;;;;5038092;28;20587;-72
2023/12/01 11:02:26;;;;;;;29.17;26.38;;;6.50;99.90;;;;;;5029558;28;20029;-71
2023/12/01 11:04:52;;;;;;;31.83;29.52;;;6.40;99.90;;;;;;5032271;28;20032;-70
2023/12/01 11:07:40;;;;;;;33.53;30.52;;;6.30;99.90;;;;;;5033121;28;20066;-71
2023/12/01 11:10:31;;;;;;;33.80;30.77;;;6.30;99.90;;;;;;5048284;28;20037;-71
2023/12/01 11:13:12;;;;;;;29.25;26.35;;;6.20;99.90;;;;;;5013967;28;20038;-71
2023/12/01 11:15:39;;;;;;;34.03;30.53;;;6.30;99.90;;;;;;5032058;28;20026;-71
2023/12/01 11:18:08;;;;;;;48.60;44.90;;;6.40;99.90;;;;;;5031820;28;20034;-71
2023/12/01 11:20:35;;;;;;;39.67;36.30;;;6.40;99.90;;;;;;5033216;28;20033;-71
2023/12/01 11:23:12;;;;;;;43.60;40.15;;;6.50;99.90;;;;;;5033277;28;20033;-70
2023/12/01 11:25:50;;;;;;;60.57;56.30;;;6.40;99.90;;;;;;5032120;28;20421;-71
2023/12/01 11:28:23;;;;;;;32.88;29.80;;;6.50;99.90;;;;;;5047803;28;20040;-70
2023/12/01 11:31:22;;;;;;;44.13;40.65;;;6.50;99.90;;;;;;5046831;28;20712;-71
2023/12/01 11:33:52;;;;;;;34.10;31.23;;;6.60;99.90;;;;;;5017602;28;20041;-71
2023/12/01 11:36:26;;;;;;;34.47;31.27;;;6.60;99.90;;;;;;5028688;28;20052;-70
2023/12/01 11:41:41;;;;;;;33.57;30.37;;;6.50;99.90;;;;;;5038689;28;20064;-71
2023/12/01 11:44:11;;;;;;;47.90;44.30;;;6.60;99.90;;;;;;5031761;28;20493;-70
2023/12/01 11:46:40;;;;;;;40.10;36.90;;;6.50;99.90;;;;;;5029310;28;20128;-71
2023/12/01 11:49:06;;;;;;;34.63;31.53;;;6.60;99.90;;;;;;5040730;28;20021;-71
2023/12/01 11:51:32;;;;;;;40.97;37.70;;;6.60;99.90;;;;;;5032003;28;20038;-71
2023/12/01 11:54:01;;;;;;;48.55;44.80;;;6.70;99.90;;;;;;5036205;28;20064;-71
2023/12/01 11:56:33;;;;;;;50.23;46.07;;;6.70;99.90;;;;;;5046808;28;20048;-71
2023/12/01 11:59:00;;;;;;;37.08;33.95;;;6.70;99.90;;;;;;5031007;28;20025;-71
2023/12/01 12:01:26;;;;;;;40.80;37.20;;;6.70;99.90;;;;;;5030224;28;20506;-71
2023/12/01 12:03:55;;;;;;;46.55;42.72;;;6.70;99.90;;;;;;5046821;28;20681;-71
2023/12/01 12:06:23;;;;;;;38.38;35.05;;;6.80;99.90;;;;;;5035287;28;20497;-71
2023/12/01 12:08:50;;;;;;;39.70;36.42;;;6.80;99.90;;;;;;5046661;28;20060;-71
2023/12/01 12:11:17;;;;;;;34.78;31.73;;;6.90;99.90;;;;;;5048989;28;20052;-71
2023/12/01 12:13:43;;;;;;;32.92;29.92;;;6.90;99.90;;;;;;5040541;28;20057;-71
2023/12/01 12:16:13;;;;;;;37.22;33.80;;;6.90;99.90;;;;;;5045641;28;20033;-71
2023/12/01 12:18:39;;;;;;;33.17;29.85;;;7.00;99.90;;;;;;5028144;28;20041;-71
2023/12/01 12:21:05;;;;;;;39.95;36.40;;;7.00;99.90;;;;;;5045240;28;20029;-71
2023/12/01 12:23:31;;;;;;;34.65;31.40;;;7.00;99.90;;;;;;5030363;28;20041;-71
2023/12/01 12:26:17;;;;;;;38.50;34.75;;;6.90;99.90;;;;;;5046805;28;20044;-71
2023/12/01 12:28:52;;;;;;;38.27;34.77;;;6.90;99.90;;;;;;5030952;28;20052;-71
2023/12/01 12:31:18;;;;;;;42.97;39.28;;;6.90;99.90;;;;;;5044765;28;20041;-71
2023/12/01 12:33:46;;;;;;;33.63;30.42;;;6.90;99.90;;;;;;5031108;28;20028;-71
2023/12/01 12:36:18;;;;;;;36.15;32.80;;;6.90;99.90;;;;;;5031134;28;20026;-71
2023/12/01 12:38:47;;;;;;;36.65;33.17;;;6.90;99.90;;;;;;5046602;28;20040;-71